Time;durP1;ratioP1;P1;durP2;ratioP2;P2;SDS_P1;SDS_P2;PMS_P1;PMS_P2;Temp;Humidity;BMP_temperature;BMP_pressure;BME280_temperature;BME280_humidity;BME280_pressure;Samples;Min_cycle;Max_cycle;Signal;HPM_P1;HPM_P2
2023/12/12 00:01:53;;;;;;;3.65;1.70;;;12.40;99.90;;;;;;10060838;28;20051;-71
2023/12/12 00:06:47;;;;;;;6.38;1.40;;;12.30;99.90;;;;;;10081452;28;20089;-69
2023/12/12 00:11:38;;;;;;;2.85;1.42;;;12.40;99.90;;;;;;10095318;28;20029;-71
2023/12/12 00:16:28;;;;;;;3.10;1.67;;;12.30;99.90;;;;;;10078277;28;20526;-71
2023/12/12 00:21:19;;;;;;;4.10;1.58;;;12.30;99.90;;;;;;10102551;28;20037;-71
2023/12/12 00:26:12;;;;;;;3.08;1.30;;;12.30;99.90;;;;;;10084044;28;20458;-71
2023/12/12 00:31:03;;;;;;;4.60;1.55;;;12.30;99.90;;;;;;10085709;28;20110;-71
2023/12/12 00:35:54;;;;;;;3.50;1.42;;;12.30;99.90;;;;;;10090451;28;20502;-71
2023/12/12 00:40:52;;;;;;;3.35;1.45;;;12.20;99.90;;;;;;10090873;28;20033;-70
2023/12/12 00:45:43;;;;;;;4.82;2.08;;;12.20;99.90;;;;;;10094182;28;20124;-70
2023/12/12 00:50:34;;;;;;;2.60;1.65;;;12.20;99.90;;;;;;10082910;28;20119;-69
2023/12/12 00:55:24;;;;;;;2.25;1.27;;;12.20;99.90;;;;;;10085046;28;20108;-69
2023/12/12 01:00:15;;;;;;;3.13;1.52;;;12.10;99.90;;;;;;10088604;28;20159;-69
2023/12/12 01:05:06;;;;;;;4.25;1.40;;;12.10;99.90;;;;;;10085996;28;20033;-69
2023/12/12 01:09:57;;;;;;;3.83;1.50;;;12.10;99.90;;;;;;10084990;28;20038;-71
2023/12/12 01:14:48;;;;;;;3.83;1.70;;;12.10;99.90;;;;;;10087495;28;20391;-69
2023/12/12 01:19:38;;;;;;;3.72;1.83;;;12.10;99.90;;;;;;10087821;28;20061;-69
2023/12/12 01:24:30;;;;;;;5.50;1.80;;;12.00;99.90;;;;;;10087783;28;20025;-69
2023/12/12 01:29:20;;;;;;;3.33;1.58;;;12.00;99.90;;;;;;10084027;28;20029;-69
2023/12/12 01:34:11;;;;;;;2.58;1.40;;;12.00;99.90;;;;;;10082640;28;20632;-69
2023/12/12 01:39:02;;;;;;;3.97;2.22;;;12.00;99.90;;;;;;10082623;28;20039;-69
2023/12/12 01:43:52;;;;;;;2.15;1.38;;;11.90;99.90;;;;;;10074286;28;20013;-71
2023/12/12 01:48:43;;;;;;;1.55;1.17;;;11.90;99.90;;;;;;10085211;28;20025;-70
2023/12/12 01:53:45;;;;;;;1.55;1.38;;;11.90;99.90;;;;;;10086578;28;20757;-70
2023/12/12 01:58:37;;;;;;;2.03;1.30;;;11.90;99.90;;;;;;10086113;28;20484;-69
2023/12/12 02:03:31;;;;;;;1.70;1.42;;;11.80;99.90;;;;;;10083015;28;20100;-69
2023/12/12 02:08:22;;;;;;;3.22;1.70;;;11.80;99.90;;;;;;10085720;28;20029;-72
2023/12/12 02:13:13;;;;;;;2.85;1.35;;;11.90;99.90;;;;;;10081189;28;20521;-70
2023/12/12 02:18:03;;;;;;;3.75;1.90;;;11.80;99.90;;;;;;10090030;28;20048;-70
2023/12/12 02:22:54;;;;;;;1.55;1.13;;;11.90;99.90;;;;;;10088142;28;20037;-69
2023/12/12 02:27:46;;;;;;;2.55;1.55;;;11.90;99.90;;;;;;10068680;28;20092;-69
2023/12/12 02:32:36;;;;;;;4.47;1.73;;;11.90;99.90;;;;;;10081221;28;20048;-70
2023/12/12 02:37:27;;;;;;;2.65;1.35;;;11.90;99.90;;;;;;10087923;28;20104;-70
2023/12/12 02:42:17;;;;;;;2.60;1.70;;;11.90;99.90;;;;;;10085954;28;20032;-70
2023/12/12 02:47:08;;;;;;;2.40;1.45;;;11.80;99.90;;;;;;10088847;28;20563;-69
2023/12/12 02:51:59;;;;;;;1.67;1.38;;;11.80;99.90;;;;;;10083193;28;20090;-70
2023/12/12 02:56:49;;;;;;;3.10;1.55;;;11.80;99.90;;;;;;10083784;28;20036;-68
2023/12/12 03:01:40;;;;;;;1.98;1.23;;;11.80;99.90;;;;;;10081638;28;20041;-70
2023/12/12 03:06:33;;;;;;;3.03;1.92;;;11.70;99.90;;;;;;10076336;28;20108;-68
2023/12/12 03:11:24;;;;;;;2.78;1.50;;;11.80;99.90;;;;;;10084299;28;20102;-69
2023/12/12 03:16:15;;;;;;;2.55;1.33;;;11.70;99.90;;;;;;10087311;28;20142;-70
2023/12/12 03:21:05;;;;;;;2.78;1.45;;;11.80;99.90;;;;;;10083780;28;20099;-69
2023/12/12 03:25:56;;;;;;;2.35;1.70;;;11.80;99.90;;;;;;10079838;28;20033;-69
2023/12/12 03:30:47;;;;;;;1.95;1.30;;;11.70;99.90;;;;;;10089720;28;20038;-69
2023/12/12 03:35:37;;;;;;;3.40;1.27;;;11.80;99.90;;;;;;10080873;28;20376;-69
2023/12/12 03:40:28;;;;;;;3.00;1.20;;;11.80;99.90;;;;;;10086420;28;20041;-69
2023/12/12 03:45:18;;;;;;;2.55;1.27;;;11.80;99.90;;;;;;10069970;28;20021;-70
2023/12/12 03:50:09;;;;;;;2.80;1.52;;;11.80;99.90;;;;;;10081397;28;20032;-68
2023/12/12 03:55:00;;;;;;;5.50;1.45;;;11.80;99.90;;;;;;10076313;28;20033;-69
2023/12/12 03:59:51;;;;;;;3.05;1.52;;;11.80;99.90;;;;;;10092553;28;20048;-68
2023/12/12 04:04:42;;;;;;;1.67;1.50;;;11.80;99.90;;;;;;10087948;28;20033;-69
2023/12/12 04:09:32;;;;;;;3.03;1.30;;;11.80;99.90;;;;;;10081946;28;20048;-70
2023/12/12 04:14:23;;;;;;;1.40;0.93;;;11.90;99.90;;;;;;10091296;28;20024;-69
2023/12/12 04:19:14;;;;;;;1.48;0.93;;;11.80;99.90;;;;;;10092042;28;20053;-69
2023/12/12 04:24:05;;;;;;;2.13;1.50;;;11.80;99.90;;;;;;10090675;28;20107;-69
2023/12/12 04:28:58;;;;;;;3.05;1.73;;;11.90;99.90;;;;;;10087626;28;20116;-69
2023/12/12 04:33:49;;;;;;;2.85;1.60;;;11.80;99.90;;;;;;10086920;28;20025;-68
2023/12/12 04:38:40;;;;;;;2.67;1.70;;;11.90;99.90;;;;;;10091389;28;20037;-69
2023/12/12 04:43:30;;;;;;;2.47;1.75;;;11.80;99.90;;;;;;10093461;28;20013;-69
2023/12/12 04:48:21;;;;;;;2.28;1.45;;;11.90;99.90;;;;;;10090749;28;20025;-70
2023/12/12 04:53:12;;;;;;;2.95;1.27;;;11.90;99.90;;;;;;10088531;28;20167;-70
2023/12/12 04:58:02;;;;;;;3.78;2.38;;;11.80;99.90;;;;;;10089278;28;20120;-70
2023/12/12 05:02:53;;;;;;;3.35;1.65;;;11.80;99.90;;;;;;10084657;28;20716;-70
2023/12/12 05:07:44;;;;;;;5.30;2.45;;;11.70;99.90;;;;;;10079806;28;20025;-70
2023/12/12 05:12:34;;;;;;;2.63;1.65;;;11.80;99.90;;;;;;10084970;28;20033;-70
2023/12/12 05:17:25;;;;;;;2.42;2.13;;;11.80;99.90;;;;;;10090625;28;20045;-70
2023/12/12 05:22:16;;;;;;;3.70;1.65;;;11.80;99.90;;;;;;10091758;28;20044;-69
2023/12/12 05:27:06;;;;;;;2.40;1.63;;;11.80;99.90;;;;;;10087732;28;20025;-71
2023/12/12 05:31:57;;;;;;;1.50;1.30;;;11.90;99.90;;;;;;10065014;28;20515;-71
2023/12/12 05:36:48;;;;;;;2.85;1.40;;;11.90;99.90;;;;;;10087844;28;20017;-68
2023/12/12 05:41:38;;;;;;;2.13;2.00;;;11.80;99.90;;;;;;10085858;28;20064;-68
2023/12/12 05:46:29;;;;;;;2.72;1.35;;;11.90;99.90;;;;;;10091715;28;20037;-69
2023/12/12 05:51:19;;;;;;;2.13;1.20;;;11.90;99.90;;;;;;10096269;28;20013;-68
2023/12/12 05:56:13;;;;;;;2.38;1.33;;;11.90;99.90;;;;;;10085854;28;20033;-70
2023/12/12 06:01:04;;;;;;;2.10;1.35;;;11.90;99.90;;;;;;10085241;28;20048;-69
2023/12/12 06:05:54;;;;;;;2.72;1.40;;;11.90;99.90;;;;;;10084435;28;20369;-69
2023/12/12 06:10:45;;;;;;;2.00;1.20;;;12.00;99.90;;;;;;10084723;28;20078;-69
2023/12/12 06:15:36;;;;;;;2.72;1.33;;;12.00;99.90;;;;;;10081872;28;20045;-68
2023/12/12 06:20:27;;;;;;;2.10;1.50;;;12.00;99.90;;;;;;10091292;28;20091;-69
2023/12/12 06:25:17;;;;;;;3.00;1.75;;;12.00;99.90;;;;;;10084696;28;20016;-70
2023/12/12 06:30:09;;;;;;;3.20;1.70;;;12.00;99.90;;;;;;10081708;28;20033;-70
2023/12/12 06:34:59;;;;;;;2.00;1.60;;;12.00;99.90;;;;;;10082054;28;20024;-69
2023/12/12 06:39:50;;;;;;;2.50;1.40;;;12.00;99.90;;;;;;10081308;28;21294;-71
2023/12/12 06:44:41;;;;;;;2.05;1.35;;;12.00;99.90;;;;;;10086905;28;20029;-71
2023/12/12 06:49:32;;;;;;;3.00;1.77;;;12.00;99.90;;;;;;10088600;28;20037;-71
2023/12/12 06:54:22;;;;;;;3.97;1.60;;;12.10;99.90;;;;;;10075419;28;20036;-70
2023/12/12 06:59:13;;;;;;;3.70;2.50;;;12.10;99.90;;;;;;10081350;28;20738;-70
2023/12/12 07:04:04;;;;;;;5.47;2.10;;;12.10;99.90;;;;;;10082414;28;20088;-70
2023/12/12 07:08:55;;;;;;;5.25;2.70;;;12.00;99.90;;;;;;10082975;28;20021;-70
2023/12/12 07:13:45;;;;;;;5.07;2.30;;;12.00;99.90;;;;;;10080815;28;20097;-69
2023/12/12 07:18:38;;;;;;;4.85;2.50;;;12.00;99.90;;;;;;10082523;28;20540;-70
2023/12/12 07:23:29;;;;;;;4.72;2.45;;;12.00;99.90;;;;;;10062337;28;20055;-70
2023/12/12 07:28:20;;;;;;;4.07;2.38;;;12.00;99.90;;;;;;10087941;28;20036;-69
2023/12/12 07:33:11;;;;;;;3.83;2.40;;;12.10;99.90;;;;;;10088162;28;20115;-68
2023/12/12 07:38:02;;;;;;;3.97;2.50;;;12.10;99.90;;;;;;10086455;28;20124;-69
2023/12/12 07:42:52;;;;;;;3.45;2.42;;;12.10;99.90;;;;;;10096798;28;20394;-68
2023/12/12 07:47:43;;;;;;;2.85;1.75;;;12.10;99.90;;;;;;10091797;28;20037;-71
2023/12/12 07:52:34;;;;;;;4.35;2.08;;;12.10;99.90;;;;;;10089401;28;20028;-68
2023/12/12 07:57:24;;;;;;;4.50;2.15;;;12.10;99.90;;;;;;10097587;28;20029;-68
2023/12/12 08:02:15;;;;;;;5.20;2.60;;;12.10;99.90;;;;;;10085618;28;20045;-68
2023/12/12 08:07:06;;;;;;;5.57;2.10;;;12.10;99.90;;;;;;10083742;28;20025;-68
2023/12/12 08:11:57;;;;;;;5.32;1.88;;;12.10;99.90;;;;;;10086479;28;20037;-68
2023/12/12 08:16:48;;;;;;;4.88;2.30;;;12.10;99.90;;;;;;10085859;28;20068;-68
2023/12/12 08:21:38;;;;;;;4.47;2.20;;;12.10;99.90;;;;;;10084282;28;20045;-73
2023/12/12 08:26:29;;;;;;;4.05;2.17;;;12.10;99.90;;;;;;10072181;28;20025;-69
2023/12/12 08:31:19;;;;;;;3.25;2.03;;;12.10;99.90;;;;;;10074212;28;20029;-70
2023/12/12 08:36:10;;;;;;;3.80;2.55;;;12.10;99.90;;;;;;10094697;28;20029;-75
2023/12/12 08:41:01;;;;;;;3.22;2.20;;;12.10;99.90;;;;;;10093294;28;20199;-66
2023/12/12 08:45:52;;;;;;;4.50;2.17;;;12.10;99.90;;;;;;10095628;28;20050;-68
2023/12/12 08:50:44;;;;;;;3.42;2.47;;;12.00;99.90;;;;;;10091403;28;20029;-68
2023/12/12 08:55:35;;;;;;;4.80;2.83;;;11.90;99.90;;;;;;10100961;28;20439;-67
2023/12/12 09:00:26;;;;;;;5.22;2.65;;;12.00;99.90;;;;;;10095807;28;20043;-68
2023/12/12 09:05:17;;;;;;;4.72;2.75;;;12.00;99.90;;;;;;10086592;28;20115;-68
2023/12/12 09:10:08;;;;;;;4.47;3.00;;;12.00;99.90;;;;;;10074981;28;20079;-68
2023/12/12 09:14:59;;;;;;;4.72;2.92;;;11.90;99.90;;;;;;10075066;28;20053;-69
2023/12/12 09:19:50;;;;;;;4.32;2.88;;;11.90;99.90;;;;;;10091953;28;20044;-67
2023/12/12 09:24:41;;;;;;;3.92;2.22;;;12.00;99.90;;;;;;10074563;28;20034;-68
2023/12/12 09:29:31;;;;;;;5.32;2.70;;;11.90;99.90;;;;;;10081359;28;20083;-69
2023/12/12 09:34:23;;;;;;;5.18;2.85;;;12.00;99.90;;;;;;10086069;28;20025;-68
2023/12/12 09:39:15;;;;;;;4.50;2.65;;;12.10;99.90;;;;;;10088173;28;20041;-69
2023/12/12 09:44:06;;;;;;;5.85;2.38;;;12.00;99.90;;;;;;10085203;28;20029;-69
2023/12/12 09:48:58;;;;;;;4.75;3.15;;;12.10;99.90;;;;;;10087515;28;20036;-69
2023/12/12 09:53:50;;;;;;;4.13;2.38;;;12.10;99.90;;;;;;10097512;28;20021;-67
2023/12/12 09:58:42;;;;;;;4.40;2.78;;;12.20;99.90;;;;;;10073997;28;20415;-66
2023/12/12 10:03:33;;;;;;;5.47;2.70;;;12.20;99.90;;;;;;10087442;28;20118;-67
2023/12/12 10:08:24;;;;;;;4.57;2.72;;;12.20;99.90;;;;;;10079103;28;20734;-69
2023/12/12 10:13:15;;;;;;;3.20;1.98;;;12.20;99.90;;;;;;10090730;28;20421;-71
2023/12/12 10:18:05;;;;;;;4.75;2.28;;;12.20;99.90;;;;;;10092049;28;20048;-69
2023/12/12 10:23:03;;;;;;;3.13;2.03;;;12.10;99.90;;;;;;10092260;28;20116;-70
2023/12/12 10:27:55;;;;;;;3.63;2.00;;;12.20;99.90;;;;;;10077767;28;20418;-70
2023/12/12 10:32:47;;;;;;;3.80;2.22;;;12.30;99.90;;;;;;10096620;28;20044;-70
2023/12/12 10:37:37;;;;;;;4.20;2.13;;;12.30;99.90;;;;;;10094025;28;20344;-68
2023/12/12 10:42:32;;;;;;;5.35;2.63;;;12.30;99.90;;;;;;10083196;28;20033;-70
2023/12/12 10:47:24;;;;;;;3.75;2.35;;;12.30;99.90;;;;;;10093134;28;20442;-71
2023/12/12 10:52:15;;;;;;;3.65;2.25;;;12.40;99.90;;;;;;10074527;28;20123;-69
2023/12/12 10:57:07;;;;;;;3.30;2.15;;;12.40;99.90;;;;;;10089677;28;20024;-71
2023/12/12 11:01:59;;;;;;;3.60;2.25;;;12.40;99.90;;;;;;10092027;28;20612;-70
2023/12/12 11:06:51;;;;;;;5.80;2.75;;;12.40;99.90;;;;;;10087558;28;20662;-71
2023/12/12 11:11:44;;;;;;;4.45;2.45;;;12.50;99.90;;;;;;10088897;28;20515;-68
2023/12/12 11:16:35;;;;;;;4.85;2.30;;;12.50;99.90;;;;;;10090220;28;20045;-67
2023/12/12 11:21:45;;;;;;;3.67;2.17;;;12.50;99.90;;;;;;10098861;28;20049;-70
2023/12/12 11:26:36;;;;;;;2.60;1.50;;;12.40;99.90;;;;;;10085829;28;20025;-69
2023/12/12 11:31:28;;;;;;;2.28;1.40;;;12.50;99.90;;;;;;10103355;28;20116;-70
2023/12/12 11:36:26;;;;;;;3.65;1.60;;;12.50;99.90;;;;;;10095493;28;20454;-70
2023/12/12 11:41:16;;;;;;;3.53;1.70;;;12.50;99.90;;;;;;10094777;28;20166;-69
2023/12/12 11:46:23;;;;;;;4.20;2.17;;;12.60;99.90;;;;;;10095043;28;20439;-69
2023/12/12 11:51:45;;;;;;;3.20;1.42;;;12.60;99.90;;;;;;10095304;28;20041;-69
2023/12/12 11:56:35;;;;;;;3.60;2.35;;;12.70;99.90;;;;;;10094698;28;20044;-68
2023/12/12 12:01:26;;;;;;;3.80;2.33;;;12.60;99.90;;;;;;10094575;28;20045;-69
2023/12/12 12:06:17;;;;;;;3.00;1.80;;;12.60;99.90;;;;;;10094535;28;20498;-70
2023/12/12 12:11:08;;;;;;;4.00;1.90;;;12.70;99.90;;;;;;10093058;28;20033;-69
2023/12/12 12:15:58;;;;;;;3.75;1.90;;;12.60;99.90;;;;;;10101445;28;20041;-68
2023/12/12 12:20:49;;;;;;;4.38;1.75;;;12.70;99.90;;;;;;10095852;28;20103;-68
2023/12/12 12:25:40;;;;;;;3.33;2.08;;;12.70;99.90;;;;;;10091987;28;20048;-68
2023/12/12 12:30:44;;;;;;;3.05;2.40;;;12.70;99.90;;;;;;10088311;28;20029;-67
2023/12/12 12:35:34;;;;;;;3.80;2.58;;;12.70;99.90;;;;;;10093849;28;20096;-68
2023/12/12 12:40:38;;;;;;;3.28;2.20;;;12.70;99.90;;;;;;10094554;28;20395;-67
2023/12/12 12:45:29;;;;;;;3.70;2.38;;;12.70;99.90;;;;;;10094768;28;20120;-67
2023/12/12 12:50:20;;;;;;;3.47;1.88;;;12.80;99.90;;;;;;10098736;28;20107;-70
2023/12/12 12:55:10;;;;;;;3.22;1.88;;;12.80;99.90;;;;;;10093793;28;20052;-68
2023/12/12 13:00:02;;;;;;;2.75;2.15;;;12.90;99.90;;;;;;10095106;28;20501;-68
2023/12/12 13:04:54;;;;;;;3.72;2.50;;;13.00;99.90;;;;;;10097247;28;20017;-68
2023/12/12 13:09:44;;;;;;;7.28;2.60;;;13.00;99.90;;;;;;10097873;28;20028;-68
2023/12/12 13:14:35;;;;;;;4.07;2.58;;;13.10;99.90;;;;;;10097287;28;20025;-69
2023/12/12 13:19:26;;;;;;;4.45;2.80;;;13.10;99.90;;;;;;10081180;28;20064;-69
2023/12/12 13:24:17;;;;;;;5.40;2.97;;;13.10;99.90;;;;;;10077722;28;20044;-70
2023/12/12 13:29:07;;;;;;;4.30;2.50;;;13.10;99.90;;;;;;10095194;28;20032;-70
2023/12/12 13:33:59;;;;;;;3.38;2.67;;;13.10;99.90;;;;;;10095566;28;20441;-67
2023/12/12 13:38:49;;;;;;;5.57;2.38;;;13.20;99.90;;;;;;10078476;28;20379;-70
2023/12/12 13:43:41;;;;;;;2.75;2.30;;;13.20;99.90;;;;;;10094483;28;20036;-70
2023/12/12 13:48:31;;;;;;;2.20;1.88;;;13.20;99.90;;;;;;10094212;28;20043;-74
2023/12/12 13:53:22;;;;;;;5.38;2.70;;;13.20;99.90;;;;;;10077811;28;20037;-71
2023/12/12 13:58:13;;;;;;;3.85;2.22;;;13.20;99.90;;;;;;10097604;28;20131;-69
2023/12/12 14:03:04;;;;;;;2.92;1.88;;;13.30;99.90;;;;;;10094382;28;20144;-71
2023/12/12 14:07:58;;;;;;;2.05;1.48;;;13.30;99.90;;;;;;10092291;28;20075;-74
2023/12/12 14:12:48;;;;;;;2.97;1.60;;;13.30;99.90;;;;;;10097307;28;20075;-71
2023/12/12 14:17:39;;;;;;;2.65;1.65;;;13.20;99.90;;;;;;10094752;28;20059;-73
2023/12/12 14:22:31;;;;;;;3.50;2.58;;;13.20;99.90;;;;;;10079387;28;20115;-76
2023/12/12 14:27:22;;;;;;;2.15;1.42;;;13.30;99.90;;;;;;10098147;28;20021;-75
2023/12/12 14:32:14;;;;;;;1.77;1.38;;;13.30;99.90;;;;;;10095607;28;20115;-76
2023/12/12 14:37:06;;;;;;;2.13;1.25;;;13.30;99.90;;;;;;10078103;28;20097;-72
2023/12/12 14:41:57;;;;;;;1.83;0.90;;;13.30;99.90;;;;;;10096018;28;20040;-75
2023/12/12 14:46:47;;;;;;;4.40;1.20;;;13.30;99.90;;;;;;10095246;28;20032;-75
2023/12/12 14:51:38;;;;;;;2.15;1.42;;;13.30;99.90;;;;;;10096057;28;20735;-73
2023/12/12 14:56:29;;;;;;;1.20;0.90;;;13.30;99.90;;;;;;10094510;28;20104;-73
2023/12/12 15:01:20;;;;;;;2.97;1.20;;;13.30;99.90;;;;;;10098696;28;20040;-72
2023/12/12 15:06:10;;;;;;;1.70;1.30;;;13.30;99.90;;;;;;10086265;28;20443;-72
2023/12/12 15:11:01;;;;;;;2.58;0.73;;;13.30;99.90;;;;;;10088351;28;20590;-70
2023/12/12 15:15:55;;;;;;;1.30;0.70;;;13.30;99.90;;;;;;10091710;28;20076;-71
2023/12/12 15:20:45;;;;;;;1.45;1.00;;;13.30;99.90;;;;;;10089246;28;20041;-71
2023/12/12 15:25:37;;;;;;;1.80;0.80;;;13.30;99.90;;;;;;10093052;28;20037;-72
2023/12/12 15:30:31;;;;;;;1.33;0.88;;;13.30;99.90;;;;;;10093730;28;20167;-71
2023/12/12 15:35:22;;;;;;;3.10;1.05;;;13.30;99.90;;;;;;10065567;28;20029;-68
2023/12/12 15:40:13;;;;;;;2.38;0.98;;;13.40;99.90;;;;;;10088053;28;20405;-69
2023/12/12 15:45:04;;;;;;;1.67;0.95;;;13.30;99.90;;;;;;10085824;28;20090;-71
2023/12/12 15:49:54;;;;;;;1.67;1.10;;;13.30;99.90;;;;;;10097398;28;20417;-68
2023/12/12 15:54:45;;;;;;;2.05;0.95;;;13.30;99.90;;;;;;10100179;28;20502;-68
2023/12/12 15:59:36;;;;;;;0.88;0.63;;;13.30;99.90;;;;;;10102693;28;20041;-69
2023/12/12 16:04:26;;;;;;;1.67;1.05;;;13.30;99.90;;;;;;10097319;28;20025;-67
2023/12/12 16:09:17;;;;;;;1.73;1.02;;;13.30;99.90;;;;;;10075467;28;20059;-66
2023/12/12 16:14:08;;;;;;;2.75;1.20;;;13.30;99.90;;;;;;10095027;28;20537;-69
2023/12/12 16:18:59;;;;;;;2.97;1.13;;;13.40;99.90;;;;;;10100370;28;20048;-69
2023/12/12 16:23:49;;;;;;;2.45;1.13;;;13.30;99.90;;;;;;10100304;28;20127;-69
2023/12/12 16:28:40;;;;;;;2.58;1.27;;;13.30;99.90;;;;;;10101453;28;20020;-68
2023/12/12 16:33:31;;;;;;;1.85;1.25;;;13.30;99.90;;;;;;10096661;28;20052;-68
2023/12/12 16:38:22;;;;;;;3.15;1.50;;;13.30;99.90;;;;;;10100194;28;20447;-70
2023/12/12 16:43:16;;;;;;;2.58;1.20;;;13.30;99.90;;;;;;10102705;28;20119;-68
2023/12/12 16:48:08;;;;;;;1.77;1.13;;;13.30;99.90;;;;;;10098966;28;20474;-69
2023/12/12 16:52:58;;;;;;;1.67;1.40;;;13.30;99.90;;;;;;10099388;28;20020;-69
2023/12/12 16:57:50;;;;;;;1.65;1.10;;;13.30;99.90;;;;;;10082238;28;20083;-69
2023/12/12 17:02:41;;;;;;;1.95;1.05;;;13.20;99.90;;;;;;10096253;28;20037;-69
2023/12/12 17:07:32;;;;;;;2.78;1.02;;;13.30;99.90;;;;;;10092770;28;20028;-69
2023/12/12 17:12:23;;;;;;;3.05;1.45;;;13.30;99.90;;;;;;10098434;28;20375;-69
2023/12/12 17:17:13;;;;;;;4.47;1.30;;;13.30;99.90;;;;;;10098181;28;20056;-67
2023/12/12 17:22:04;;;;;;;5.43;2.03;;;13.20;99.90;;;;;;10100329;28;20049;-68
2023/12/12 17:26:55;;;;;;;4.22;1.95;;;13.30;99.90;;;;;;10100095;28;20032;-69
2023/12/12 17:31:46;;;;;;;1.58;1.05;;;13.20;99.90;;;;;;10099376;28;20029;-69
2023/12/12 17:36:37;;;;;;;2.47;1.17;;;13.20;99.90;;;;;;10099278;28;20116;-68
2023/12/12 17:41:28;;;;;;;1.70;1.00;;;13.20;99.90;;;;;;10099279;28;20124;-67
2023/12/12 17:46:19;;;;;;;1.73;1.00;;;13.20;99.90;;;;;;10098558;28;20065;-69
2023/12/12 17:51:10;;;;;;;1.35;0.75;;;13.10;99.90;;;;;;10097871;28;20029;-69
2023/12/12 17:56:01;;;;;;;1.63;1.27;;;13.10;99.90;;;;;;10081673;28;20048;-70
2023/12/12 18:00:52;;;;;;;2.78;0.85;;;13.20;99.90;;;;;;10086976;28;20095;-69
2023/12/12 18:05:47;;;;;;;2.15;1.15;;;13.20;99.90;;;;;;10096858;28;20037;-69
2023/12/12 18:10:38;;;;;;;2.70;1.20;;;13.20;99.90;;;;;;10077190;28;20079;-69
2023/12/12 18:15:28;;;;;;;1.98;1.00;;;13.20;99.90;;;;;;10093190;28;20113;-69
2023/12/12 18:20:21;;;;;;;3.10;1.23;;;13.20;99.90;;;;;;10098354;28;20048;-68
2023/12/12 18:25:11;;;;;;;2.63;1.02;;;13.20;99.90;;;;;;10096894;28;20021;-69
2023/12/12 18:30:08;;;;;;;2.60;1.13;;;13.20;99.90;;;;;;10097489;28;20029;-68
2023/12/12 18:35:01;;;;;;;2.88;1.27;;;13.20;99.90;;;;;;10096585;28;20437;-70
2023/12/12 18:39:51;;;;;;;2.05;1.30;;;13.20;99.90;;;;;;10096685;28;20905;-67
2023/12/12 18:44:42;;;;;;;3.67;1.73;;;13.20;99.90;;;;;;10079958;28;20064;-68
2023/12/12 18:49:33;;;;;;;2.03;1.83;;;13.20;99.90;;;;;;10094662;28;20120;-68
2023/12/12 18:54:24;;;;;;;1.42;0.93;;;13.20;99.90;;;;;;10095808;28;20029;-68
2023/12/12 18:59:15;;;;;;;1.50;1.27;;;13.20;99.90;;;;;;10081242;28;20041;-69
2023/12/12 19:04:05;;;;;;;3.28;1.85;;;13.20;99.90;;;;;;10087362;28;20056;-68
2023/12/12 19:08:56;;;;;;;3.20;1.38;;;13.20;99.90;;;;;;10095944;28;20032;-69
2023/12/12 19:13:47;;;;;;;3.58;1.50;;;13.10;99.90;;;;;;10093961;28;20024;-68
2023/12/12 19:18:38;;;;;;;2.95;1.15;;;13.00;99.90;;;;;;10077553;28;20052;-68
2023/12/12 19:23:29;;;;;;;2.70;1.52;;;13.00;99.90;;;;;;10103955;28;20549;-70
2023/12/12 19:28:20;;;;;;;4.05;1.60;;;12.90;99.90;;;;;;10105193;28;20639;-68
2023/12/12 19:33:11;;;;;;;4.15;1.85;;;12.90;99.90;;;;;;10101916;28;20039;-70
2023/12/12 19:38:02;;;;;;;4.18;1.80;;;13.00;99.90;;;;;;10102601;28;20025;-67
2023/12/12 19:42:56;;;;;;;3.20;1.83;;;13.10;99.90;;;;;;10108981;28;20562;-67
2023/12/12 19:47:48;;;;;;;3.22;1.83;;;13.00;99.90;;;;;;10086603;28;20033;-68
2023/12/12 19:52:39;;;;;;;3.47;1.90;;;13.10;99.90;;;;;;10107198;28;20025;-68
2023/12/12 19:57:30;;;;;;;2.72;1.80;;;13.00;99.90;;;;;;10104011;28;20051;-69
2023/12/12 20:02:22;;;;;;;3.28;2.10;;;13.10;99.90;;;;;;10071507;28;20062;-69
2023/12/12 20:07:14;;;;;;;2.13;1.30;;;13.10;99.90;;;;;;10106511;28;20501;-69
2023/12/12 20:12:05;;;;;;;3.03;1.40;;;13.10;99.90;;;;;;10106334;28;20064;-68
2023/12/12 20:16:56;;;;;;;4.55;1.63;;;13.00;99.90;;;;;;10106225;28;20642;-68
2023/12/12 20:21:47;;;;;;;2.35;1.25;;;13.10;99.90;;;;;;10107838;28;20394;-70
2023/12/12 20:26:42;;;;;;;2.45;1.48;;;13.00;99.90;;;;;;10106515;28;20025;-69
2023/12/12 20:31:32;;;;;;;3.10;1.30;;;13.10;99.90;;;;;;10107378;28;20029;-68
2023/12/12 20:36:23;;;;;;;1.95;1.20;;;13.00;99.90;;;;;;10098978;28;20071;-68
2023/12/12 20:41:14;;;;;;;2.45;0.88;;;13.00;99.90;;;;;;10094528;28;20040;-67
2023/12/12 20:46:04;;;;;;;4.05;1.40;;;13.00;99.90;;;;;;10076330;28;20142;-68
2023/12/12 20:50:55;;;;;;;1.48;0.85;;;12.90;99.90;;;;;;10093951;28;20207;-68
2023/12/12 20:55:46;;;;;;;4.28;1.55;;;12.50;99.90;;;;;;10099423;28;20032;-68
2023/12/12 21:00:37;;;;;;;1.23;0.73;;;12.30;99.90;;;;;;10092657;28;20080;-68
2023/12/12 21:05:27;;;;;;;1.35;0.70;;;12.10;99.90;;;;;;10093947;28;20098;-71
2023/12/12 21:10:18;;;;;;;3.08;1.10;;;12.20;99.90;;;;;;10071192;28;20132;-70
2023/12/12 21:15:09;;;;;;;2.22;1.17;;;12.20;99.90;;;;;;10087857;28;20137;-72
2023/12/12 21:20:00;;;;;;;3.90;0.85;;;12.30;99.90;;;;;;10093013;28;20101;-69
2023/12/12 21:24:51;;;;;;;2.00;0.75;;;12.30;99.90;;;;;;10091355;28;20025;-71
2023/12/12 21:29:42;;;;;;;2.78;1.30;;;12.30;99.90;;;;;;10097200;28;20648;-70
2023/12/12 21:34:33;;;;;;;2.97;1.15;;;12.30;99.90;;;;;;10098026;28;20021;-68
2023/12/12 21:39:24;;;;;;;1.50;1.15;;;12.40;99.90;;;;;;10108700;28;20538;-67
2023/12/12 21:44:15;;;;;;;1.95;1.15;;;12.30;99.90;;;;;;10097397;28;20095;-68
2023/12/12 21:49:05;;;;;;;1.52;1.30;;;12.40;99.90;;;;;;10098963;28;20017;-71
2023/12/12 21:53:56;;;;;;;1.50;0.90;;;12.40;99.90;;;;;;10097111;28;20518;-70
2023/12/12 21:58:53;;;;;;;1.08;0.77;;;12.40;99.90;;;;;;10100048;28;20548;-71
2023/12/12 22:03:44;;;;;;;1.13;0.52;;;12.40;99.90;;;;;;10090476;28;20033;-69
2023/12/12 22:08:37;;;;;;;1.80;0.65;;;12.30;99.90;;;;;;10098497;28;20044;-68
2023/12/12 22:13:28;;;;;;;2.47;0.57;;;12.30;99.90;;;;;;10096211;28;20043;-68
2023/12/12 22:18:18;;;;;;;1.38;1.05;;;12.30;99.90;;;;;;10079991;28;20037;-71
2023/12/12 22:23:09;;;;;;;0.95;0.80;;;12.30;99.90;;;;;;10097524;28;20045;-68
2023/12/12 22:28:00;;;;;;;2.30;0.68;;;12.30;99.90;;;;;;10097526;28;20032;-68
2023/12/12 22:32:52;;;;;;;2.85;0.50;;;12.30;99.90;;;;;;10082934;28;20467;-67
2023/12/12 22:37:42;;;;;;;1.15;0.50;;;12.30;99.90;;;;;;10085685;28;20380;-69
2023/12/12 22:42:33;;;;;;;0.57;0.38;;;12.20;99.90;;;;;;10083884;28;20037;-68
2023/12/12 22:47:24;;;;;;;1.02;0.68;;;12.20;99.90;;;;;;10086799;28;20577;-69
2023/12/12 22:52:15;;;;;;;2.35;0.60;;;12.20;99.90;;;;;;10082347;28;20121;-67
2023/12/12 22:57:05;;;;;;;1.73;0.57;;;12.10;99.90;;;;;;10082271;28;20027;-68
2023/12/12 23:01:56;;;;;;;0.70;0.50;;;12.10;99.90;;;;;;10078491;28;20041;-68
2023/12/12 23:06:47;;;;;;;1.95;0.52;;;12.10;99.90;;;;;;10079538;28;20044;-68
2023/12/12 23:11:38;;;;;;;0.50;0.35;;;12.00;99.90;;;;;;10074441;28;20118;-67
2023/12/12 23:16:29;;;;;;;1.35;1.00;;;12.10;99.90;;;;;;10089230;28;20165;-68
2023/12/12 23:21:20;;;;;;;1.65;0.70;;;12.10;99.90;;;;;;10083260;28;20037;-68
2023/12/12 23:26:10;;;;;;;1.92;0.73;;;12.10;99.90;;;;;;10090882;28;20040;-68
2023/12/12 23:31:01;;;;;;;1.30;0.63;;;12.10;99.90;;;;;;10080895;28;20033;-68
2023/12/12 23:35:51;;;;;;;1.55;0.95;;;12.00;99.90;;;;;;10087220;28;20053;-68
2023/12/12 23:40:42;;;;;;;0.30;0.17;;;11.90;99.90;;;;;;10087858;28;20051;-68
2023/12/12 23:45:36;;;;;;;1.13;0.30;;;11.90;99.90;;;;;;10074631;28;20497;-67
2023/12/12 23:50:27;;;;;;;1.15;0.40;;;11.90;99.90;;;;;;10087017;28;20029;-66
2023/12/12 23:55:17;;;;;;;0.70;0.30;;;11.80;99.90;;;;;;10083112;28;20029;-67
